Time;durP1;ratioP1;P1;durP2;ratioP2;P2;SDS_P1;SDS_P2;PMS_P1;PMS_P2;Temp;Humidity;BMP_temperature;BMP_pressure;BME280_temperature;BME280_humidity;BME280_pressure;Samples;Min_cycle;Max_cycle;Signal;HPM_P1;HPM_P2
2022/05/18 00:01:06;;;;;;;28.85;14.60;;;;;;;20.15;69.75;100115.97;5055915;28;20029;-85
2022/05/18 00:03:37;;;;;;;25.98;14.27;;;;;;;20.12;69.50;100112.81;5055706;28;20406;-85
2022/05/18 00:06:03;;;;;;;31.30;14.90;;;;;;;20.16;69.38;100114.94;5055159;28;20455;-85
2022/05/18 00:08:36;;;;;;;29.83;15.15;;;;;;;20.16;69.48;100114.94;5056052;28;20037;-84
2022/05/18 00:11:04;;;;;;;29.33;15.38;;;;;;;20.21;69.20;100114.34;5055696;28;20020;-85
2022/05/18 00:13:29;;;;;;;23.67;14.90;;;;;;;20.22;69.14;100116.03;5056120;28;20045;-84
2022/05/18 00:15:54;;;;;;;26.88;15.52;;;;;;;20.25;68.79;100108.28;5055466;28;20394;-84
2022/05/18 00:18:20;;;;;;;29.45;15.20;;;;;;;20.24;68.80;100114.81;5055178;28;20370;-85
2022/05/18 00:20:45;;;;;;;29.65;16.40;;;;;;;20.21;69.09;100112.47;5054409;28;20115;-85
2022/05/18 00:23:11;;;;;;;24.13;16.05;;;;;;;20.12;69.62;100104.63;5055651;28;20057;-86
2022/05/18 00:25:40;;;;;;;29.77;17.45;;;;;;;20.09;69.83;100100.38;5055137;28;20028;-85
2022/05/18 00:28:06;;;;;;;24.80;16.52;;;;;;;20.13;70.20;100104.41;5054721;28;20082;-85
2022/05/18 00:30:33;;;;;;;24.48;15.05;;;;;;;20.13;69.89;100104.41;5054170;28;20029;-84
2022/05/18 00:33:05;;;;;;;26.90;16.58;;;;;;;20.20;70.07;100120.84;5055255;28;20037;-85
2022/05/18 00:35:33;;;;;;;35.75;16.67;;;;;;;20.19;69.90;100151.91;5054837;28;20108;-86
2022/05/18 00:37:58;;;;;;;30.10;15.65;;;;;;;20.13;69.90;100156.28;5054828;28;20029;-86
2022/05/18 00:40:24;;;;;;;23.08;18.88;;;;;;;20.11;70.39;100161.13;5054654;28;20055;-85
2022/05/18 00:42:50;;;;;;;29.00;22.60;;;;;;;20.19;70.18;100174.63;5055184;28;20053;-86
2022/05/18 00:45:16;;;;;;;27.02;18.83;;;;;;;20.25;69.62;100171.09;5056012;28;20056;-85
2022/05/18 00:47:41;;;;;;;31.25;12.98;;;;;;;20.32;67.84;100163.84;5054956;28;20099;-85
2022/05/18 00:50:10;;;;;;;15.32;10.30;;;;;;;20.45;66.75;100163.09;5055219;28;20025;-85
2022/05/18 00:52:40;;;;;;;18.90;9.30;;;;;;;20.50;65.85;100155.97;5055251;28;20479;-87
2022/05/18 00:55:09;;;;;;;22.13;8.43;;;;;;;20.52;64.23;100142.94;5054676;28;20061;-86
2022/05/18 00:57:45;;;;;;;24.20;7.78;;;;;;;20.47;64.64;100150.91;5055425;28;20024;-86
2022/05/18 01:00:15;;;;;;;20.52;7.53;;;;;;;20.47;64.46;100130.94;5055253;28;20029;-85
2022/05/18 01:02:46;;;;;;;20.23;7.57;;;;;;;20.49;64.37;100146.09;5054663;28;20024;-85
2022/05/18 01:05:17;;;;;;;14.90;7.70;;;;;;;20.43;64.24;100127.75;5054221;28;20023;-85
2022/05/18 01:07:51;;;;;;;29.13;8.38;;;;;;;20.39;64.16;100131.09;5054603;28;20074;-85
2022/05/18 01:10:17;;;;;;;15.43;7.40;;;;;;;20.37;64.66;100134.03;5054690;28;20028;-86
2022/05/18 01:12:42;;;;;;;20.70;6.68;;;;;;;20.36;64.83;100154.22;5054574;28;20036;-86
2022/05/18 01:15:15;;;;;;;19.23;7.00;;;;;;;20.40;64.81;100127.31;5056902;28;20032;-86
2022/05/18 01:17:42;;;;;;;;;;;;;;;20.37;64.63;100133.19;5071881;28;20044;-84
2022/05/18 01:20:16;;;;;;;25.08;7.93;;;;;;;20.32;64.63;100109.22;5064316;28;19920;-86
2022/05/18 01:22:53;;;;;;;18.10;6.30;;;;;;;20.29;65.01;100114.22;5055192;28;20471;-86
2022/05/18 01:25:34;;;;;;;28.08;7.60;;;;;;;20.21;65.23;100117.09;5052433;28;20025;-86
2022/05/18 01:28:00;;;;;;;18.30;7.15;;;;;;;20.21;65.29;100128.84;5053570;28;20024;-86
2022/05/18 01:30:28;;;;;;;13.70;6.68;;;;;;;20.19;65.48;100130.91;5054002;28;20223;-86
2022/05/18 01:32:56;;;;;;;16.15;7.38;;;;;;;20.18;65.83;100148.38;5053866;28;20021;-86
2022/05/18 01:35:26;;;;;;;20.98;7.28;;;;;;;20.11;65.99;100122.88;5053535;28;20429;-86
2022/05/18 01:37:57;;;;;;;14.45;6.32;;;;;;;20.16;66.14;100147.72;5052326;28;20094;-86
2022/05/18 01:40:51;;;;;;;20.92;6.60;;;;;;;20.14;66.08;100171.66;5054071;28;20078;-86
2022/05/18 01:43:22;;;;;;;19.70;6.80;;;;;;;20.02;66.45;100234.13;5044808;28;20072;-86
2022/05/18 01:45:53;;;;;;;20.30;6.55;;;;;;;19.99;67.33;100267.28;5053444;28;20395;-86
2022/05/18 01:48:23;;;;;;;18.10;7.75;;;;;;;19.96;67.74;100272.28;5053476;28;20036;-87
2022/05/18 01:50:50;;;;;;;15.55;7.30;;;;;;;19.94;68.33;100280.66;5053471;28;20059;-86
2022/05/18 01:53:16;;;;;;;22.08;7.32;;;;;;;19.94;68.84;100280.66;5053244;28;20025;-86
2022/05/18 01:55:42;;;;;;;20.35;6.68;;;;;;;19.88;69.04;100303.25;5053754;28;20036;-85
2022/05/18 01:58:10;;;;;;;28.80;7.07;;;;;;;19.87;69.34;100300.75;5054120;28;20394;-85
2022/05/18 02:00:35;;;;;;;15.80;7.15;;;;;;;19.95;69.09;100265.13;5053434;28;20029;-86
2022/05/18 02:03:02;;;;;;;14.68;6.40;;;;;;;19.90;69.54;100229.38;5053675;28;20398;-86
2022/05/18 02:05:28;;;;;;;20.00;7.45;;;;;;;19.61;74.47;100213.09;5053650;28;20479;-86
2022/05/18 02:07:53;;;;;;;20.77;8.48;;;;;;;19.16;78.01;100220.53;5053251;28;20033;-84
2022/05/18 02:10:19;;;;;;;17.58;8.75;;;;;;;18.70;82.99;100230.78;5053198;28;20025;-87
2022/05/18 02:12:44;;;;;;;22.30;10.00;;;;;;;18.26;88.03;100260.59;5052865;28;20029;-83
2022/05/18 02:15:10;;;;;;;20.10;10.85;;;;;;;17.87;90.85;100260.75;5052945;28;20024;-82
2022/05/18 02:17:37;;;;;;;22.67;9.52;;;;;;;17.61;92.61;100256.66;5056809;28;20036;-82
2022/05/18 02:20:03;;;;;;;20.67;10.57;;;;;;;17.45;94.00;100265.72;5058412;28;20389;-82
2022/05/18 02:22:29;;;;;;;29.15;12.40;;;;;;;17.33;95.23;100254.41;5056957;28;20063;-82
2022/05/18 02:24:54;;;;;;;21.92;11.00;;;;;;;17.30;96.61;100252.03;5055612;28;20111;-82
2022/05/18 02:27:20;;;;;;;28.10;11.52;;;;;;;17.19;97.38;100222.50;5057048;28;20116;-81
2022/05/18 02:29:45;;;;;;;18.58;11.18;;;;;;;17.22;98.49;100238.47;5057092;28;20025;-82
2022/05/18 02:32:10;;;;;;;20.13;10.95;;;;;;;17.19;99.14;100218.94;5056726;28;20025;-82
2022/05/18 02:34:36;;;;;;;17.58;10.18;;;;;;;17.18;99.55;100236.31;5056746;28;20463;-82
2022/05/18 02:37:03;;;;;;;20.42;10.82;;;;;;;17.17;99.56;100232.72;5056617;28;20483;-82
2022/05/18 02:39:29;;;;;;;14.32;11.23;;;;;;;17.15;100.00;100236.66;5056775;28;20491;-82
2022/05/18 02:41:55;;;;;;;19.33;10.55;;;;;;;17.19;100.00;100238.81;5056457;28;20039;-83
2022/05/18 02:44:20;;;;;;;16.05;9.55;;;;;;;17.21;100.00;100233.22;5056363;28;20025;-82
2022/05/18 02:46:46;;;;;;;19.95;10.30;;;;;;;17.27;100.00;100224.38;5056688;28;20094;-81
2022/05/18 02:49:12;;;;;;;15.60;9.55;;;;;;;17.29;99.95;100220.44;5056154;28;20029;-81
2022/05/18 02:51:39;;;;;;;16.58;10.07;;;;;;;17.33;99.80;100218.22;5056586;28;20459;-81
2022/05/18 02:56:53;;;;;;;21.13;9.50;;;;;;;17.38;100.00;100216.66;5066711;28;20109;-80
2022/05/18 02:59:19;;;;;;;17.75;10.32;;;;;;;17.30;98.70;100197.69;5073048;28;20029;-80
2022/05/18 03:01:45;;;;;;;20.60;9.82;;;;;;;17.38;99.36;100215.78;5056890;28;20052;-81
2022/05/18 03:04:12;;;;;;;19.33;10.43;;;;;;;17.34;99.79;100209.88;5056242;28;20083;-81
2022/05/18 03:06:38;;;;;;;11.25;9.27;;;;;;;17.33;100.00;100219.06;5056152;28;20025;-81
2022/05/18 03:09:03;;;;;;;13.27;10.52;;;;;;;17.35;100.00;100233.31;5056075;28;20068;-80
2022/05/18 03:11:29;;;;;;;19.17;10.50;;;;;;;17.35;100.00;100232.47;5055915;28;20052;-80
2022/05/18 03:13:54;;;;;;;15.00;10.90;;;;;;;17.34;100.00;100223.47;5055859;28;20027;-82
2022/05/18 03:16:21;;;;;;;16.85;10.55;;;;;;;17.37;100.00;100195.91;5055806;28;20112;-82
2022/05/18 03:18:46;;;;;;;19.20;10.13;;;;;;;17.42;100.00;100185.38;5055279;28;20120;-84
2022/05/18 03:23:55;;;;;;;20.15;10.80;;;;;;;17.45;100.00;100177.88;5054785;28;20040;-75
2022/05/18 03:26:23;;;;;;;17.80;10.30;;;;;;;17.41;100.00;100172.78;5054705;28;20021;-76
2022/05/18 03:28:50;;;;;;;14.88;9.88;;;;;;;17.40;100.00;100189.28;5054159;28;20048;-75
2022/05/18 03:31:17;;;;;;;18.60;11.80;;;;;;;17.47;100.00;100209.28;5054833;28;20079;-75
2022/05/18 03:33:43;;;;;;;17.73;10.85;;;;;;;17.46;100.00;100210.31;5055086;28;20029;-75
2022/05/18 03:36:12;;;;;;;18.60;10.32;;;;;;;17.46;99.82;100226.63;5054451;28;20055;-75
2022/05/18 03:38:38;;;;;;;23.85;11.10;;;;;;;17.52;99.46;100234.06;5054559;28;20045;-76
2022/05/18 03:41:04;;;;;;;16.70;11.00;;;;;;;17.51;99.33;100250.56;5054308;28;20033;-77
2022/05/18 03:43:31;;;;;;;21.90;11.07;;;;;;;17.60;99.28;100249.53;5054471;28;20043;-77
2022/05/18 03:46:00;;;;;;;18.65;10.85;;;;;;;17.57;98.42;100248.00;5054261;28;20025;-75
2022/05/18 03:48:27;;;;;;;20.27;11.35;;;;;;;17.63;98.36;100251.88;5054286;28;20029;-75
2022/05/18 03:50:54;;;;;;;19.23;11.05;;;;;;;17.63;98.35;100273.66;5054301;28;20029;-75
2022/05/18 03:53:20;;;;;;;19.77;11.50;;;;;;;17.76;98.58;100287.50;5054043;28;20039;-75
2022/05/18 03:55:46;;;;;;;19.80;11.50;;;;;;;17.88;98.60;100291.53;5053054;28;20440;-75
2022/05/18 03:58:13;;;;;;;16.75;11.25;;;;;;;17.95;98.10;100300.63;5053126;28;20395;-75
2022/05/18 04:00:40;;;;;;;15.30;12.18;;;;;;;18.00;96.71;100292.78;5053747;28;20107;-75
2022/05/18 04:03:06;;;;;;;20.60;10.05;;;;;;;18.02;96.98;100296.19;5053369;28;20032;-75
2022/05/18 04:05:32;;;;;;;14.20;10.00;;;;;;;18.09;96.64;100297.16;5053919;28;20025;-76
2022/05/18 04:07:58;;;;;;;20.52;11.18;;;;;;;18.18;96.60;100306.94;5054106;28;20039;-77
2022/05/18 04:10:24;;;;;;;18.15;13.00;;;;;;;18.30;95.92;100310.94;5053963;28;20021;-77
2022/05/18 04:12:49;;;;;;;21.65;12.75;;;;;;;18.28;96.06;100301.28;5055143;28;20479;-82
2022/05/18 04:15:18;;;;;;;18.92;11.88;;;;;;;18.33;96.37;100301.56;5054874;28;20033;-81
2022/05/18 04:17:45;;;;;;;15.55;9.90;;;;;;;18.33;95.87;100299.69;5056018;28;20033;-83
2022/05/18 04:20:22;;;;;;;13.55;10.77;;;;;;;18.42;95.61;100298.59;5063086;28;20029;-79
2022/05/18 04:22:48;;;;;;;18.27;10.93;;;;;;;18.42;94.31;100293.13;5064889;28;20040;-81
2022/05/18 04:25:18;;;;;;;17.15;9.85;;;;;;;18.43;93.33;100289.41;5063273;28;20040;-79
2022/05/18 04:27:47;;;;;;;16.77;11.95;;;;;;;18.42;92.69;100293.13;5059574;28;20025;-79
2022/05/18 04:30:13;;;;;;;15.18;9.88;;;;;;;18.21;91.43;100287.53;5054539;28;20036;-84
2022/05/18 04:32:39;;;;;;;17.13;11.23;;;;;;;18.33;91.60;100288.78;5056231;28;20102;-81
2022/05/18 04:35:06;;;;;;;21.65;10.93;;;;;;;18.43;92.02;100283.94;5056334;28;20492;-83
2022/05/18 04:37:32;;;;;;;18.67;11.23;;;;;;;18.34;91.66;100290.50;5075074;28;20047;-82
2022/05/18 04:39:57;;;;;;;12.75;9.45;;;;;;;18.35;91.26;100281.28;5061275;28;20096;-83
2022/05/18 04:42:22;;;;;;;20.17;10.23;;;;;;;18.41;91.34;100286.00;5054876;28;20029;-83
2022/05/18 04:44:51;;;;;;;12.82;9.25;;;;;;;18.36;91.78;100279.41;5054648;28;20033;-82
2022/05/18 04:47:20;;;;;;;17.65;9.73;;;;;;;18.39;91.76;100277.16;5054107;28;20376;-78
2022/05/18 04:49:46;;;;;;;16.25;10.80;;;;;;;18.45;91.41;100275.59;5053764;28;20111;-87
2022/05/18 04:52:11;;;;;;;19.75;10.20;;;;;;;18.41;90.88;100280.53;5053813;28;20108;-80
2022/05/18 04:54:37;;;;;;;19.67;11.20;;;;;;;18.51;90.83;100295.81;5054354;28;20048;-82
2022/05/18 04:57:04;;;;;;;16.27;10.02;;;;;;;18.54;90.65;100293.56;5054174;28;20097;-84
2022/05/18 04:59:29;;;;;;;13.05;10.05;;;;;;;18.59;90.28;100298.47;5054069;28;20090;-83
2022/05/18 05:01:55;;;;;;;14.77;9.40;;;;;;;18.60;89.95;100301.00;5053990;28;20104;-79
2022/05/18 05:04:21;;;;;;;17.98;8.70;;;;;;;18.65;89.40;100309.50;5052987;28;20025;-79
2022/05/18 05:06:46;;;;;;;12.32;9.55;;;;;;;18.70;89.52;100306.19;5053176;28;20230;-78
2022/05/18 05:09:12;;;;;;;14.60;10.32;;;;;;;18.70;89.39;100312.50;5052293;28;20025;-79
2022/05/18 05:11:37;;;;;;;17.27;10.27;;;;;;;18.75;89.44;100304.59;5051196;28;20021;-78
2022/05/18 05:14:03;;;;;;;16.23;9.32;;;;;;;18.80;89.50;100312.25;5051662;28;20049;-79
2022/05/18 05:16:29;;;;;;;15.70;9.50;;;;;;;18.75;88.99;100317.38;5051360;28;20036;-79
2022/05/18 05:18:56;;;;;;;12.65;9.73;;;;;;;18.72;87.32;100320.47;5051815;28;20402;-79
2022/05/18 05:21:21;;;;;;;11.50;9.32;;;;;;;18.68;88.07;100325.47;5051618;28;20527;-79
2022/05/18 05:23:47;;;;;;;18.45;9.60;;;;;;;18.64;88.22;100339.63;5052178;28;20056;-79
2022/05/18 05:26:13;;;;;;;17.67;9.05;;;;;;;18.65;88.56;100357.69;5052437;28;20029;-79
2022/05/18 05:28:39;;;;;;;15.38;8.82;;;;;;;18.67;88.83;100361.06;5051951;28;20047;-79
2022/05/18 05:31:07;;;;;;;13.55;8.30;;;;;;;18.67;88.41;100371.94;5052037;28;20033;-80
2022/05/18 05:33:34;;;;;;;12.68;5.72;;;;;;;18.63;86.84;100370.63;5052460;28;20032;-80
2022/05/18 05:36:00;;;;;;;9.13;4.90;;;;;;;18.26;82.81;100369.50;5052472;28;20048;-82
2022/05/18 05:38:27;;;;;;;9.38;5.80;;;;;;;18.14;83.95;100386.41;5052880;28;20098;-84
2022/05/18 05:40:52;;;;;;;10.85;5.32;;;;;;;17.98;83.58;100403.69;5053416;28;20035;-84
2022/05/18 05:43:18;;;;;;;9.30;5.43;;;;;;;17.73;83.51;100404.84;5052904;28;20398;-83
2022/05/18 05:45:54;;;;;;;15.10;6.50;;;;;;;17.63;85.16;100420.50;5053057;28;20025;-84
2022/05/18 05:48:19;;;;;;;8.13;5.03;;;;;;;17.43;85.35;100426.31;5054321;28;20023;-83
2022/05/18 05:50:45;;;;;;;10.55;4.03;;;;;;;17.22;85.43;100423.28;5051807;28;20016;-82
2022/05/18 05:53:10;;;;;;;7.10;2.58;;;;;;;16.93;85.55;100439.28;5053016;28;20545;-81
2022/05/18 05:55:35;;;;;;;16.53;6.47;;;;;;;16.61;84.49;100433.84;5052925;28;20033;-80
2022/05/18 05:58:01;;;;;;;20.63;8.25;;;;;;;16.28;85.57;100454.63;5052657;28;20029;-83
2022/05/18 06:00:26;;;;;;;15.43;7.93;;;;;;;15.98;86.40;100437.06;5052175;28;20114;-81
2022/05/18 06:02:52;;;;;;;8.73;2.92;;;;;;;15.76;87.68;100432.22;5052341;28;20025;-81
2022/05/18 06:05:18;;;;;;;10.73;2.47;;;;;;;15.70;89.86;100443.72;5052409;28;20028;-80
2022/05/18 06:07:44;;;;;;;8.35;2.75;;;;;;;15.45;90.36;100426.44;5052500;28;20096;-81
2022/05/18 06:10:11;;;;;;;4.78;2.90;;;;;;;15.34;89.67;100432.16;5052177;28;20032;-81
2022/05/18 06:12:38;;;;;;;7.18;2.67;;;;;;;15.14;89.94;100423.38;5052151;28;20021;-81
2022/05/18 06:15:04;;;;;;;7.60;2.90;;;;;;;15.06;89.94;100434.16;5052334;28;20074;-83
2022/05/18 06:17:30;;;;;;;5.90;2.53;;;;;;;14.94;89.88;100457.09;5059834;28;20036;-83
2022/05/18 06:19:55;;;;;;;8.85;2.45;;;;;;;14.79;91.07;100453.25;5067105;28;20028;-82
2022/05/18 06:22:21;;;;;;;8.30;2.95;;;;;;;14.66;92.23;100460.88;5052554;28;20479;-80
2022/05/18 06:24:49;;;;;;;11.18;2.50;;;;;;;14.58;91.02;100460.81;5050247;28;20029;-79
2022/05/18 06:27:15;;;;;;;10.48;3.40;;;;;;;14.50;91.65;100441.78;5051127;28;20032;-79
2022/05/18 06:29:41;;;;;;;7.80;2.97;;;;;;;14.49;92.23;100451.78;5051176;28;20403;-80
2022/05/18 06:32:07;;;;;;;8.45;2.80;;;;;;;14.49;92.73;100464.47;5051439;28;20032;-80
2022/05/18 06:34:32;;;;;;;17.85;8.65;;;;;;;14.41;93.55;100458.94;5051213;28;20044;-80
2022/05/18 06:36:57;;;;;;;7.63;3.90;;;;;;;14.38;94.01;100468.22;5050996;28;20410;-80
2022/05/18 06:39:23;;;;;;;5.00;3.03;;;;;;;14.46;94.11;100487.22;5051157;28;20453;-79
2022/05/18 06:41:49;;;;;;;3.92;2.53;;;;;;;14.44;94.00;100464.91;5051151;28;20037;-79
2022/05/18 06:44:15;;;;;;;3.85;2.22;;;;;;;14.51;94.01;100517.41;5050982;28;20460;-79
2022/05/18 06:46:41;;;;;;;9.77;2.28;;;;;;;14.43;92.82;100495.66;5050939;28;20081;-79
2022/05/18 06:49:09;;;;;;;5.40;2.90;;;;;;;14.32;90.20;100506.66;5051042;28;20029;-79
2022/05/18 06:51:39;;;;;;;11.65;5.10;;;;;;;14.30;88.96;100526.78;5051065;28;20547;-78
2022/05/18 06:54:05;;;;;;;5.20;2.42;;;;;;;14.21;89.22;100511.44;5051154;28;20106;-79
2022/05/18 06:56:34;;;;;;;10.30;3.00;;;;;;;14.31;89.11;100533.91;5055641;28;20056;-78
2022/05/18 06:59:00;;;;;;;6.07;2.75;;;;;;;14.24;89.91;100549.00;5052505;28;20029;-78
2022/05/18 07:01:27;;;;;;;6.03;2.80;;;;;;;14.21;90.37;100543.91;5051679;28;20059;-78
2022/05/18 07:03:53;;;;;;;8.25;2.95;;;;;;;14.17;90.46;100555.03;5053647;28;20047;-78
2022/05/18 07:06:21;;;;;;;7.22;3.95;;;;;;;14.20;90.85;100580.91;5054981;28;20017;-79
2022/05/18 07:08:48;;;;;;;11.77;7.63;;;;;;;14.19;90.96;100571.94;5054814;28;20538;-80
2022/05/18 07:11:13;;;;;;;14.02;3.08;;;;;;;14.15;91.55;100583.22;5054549;28;20032;-79
2022/05/18 07:13:39;;;;;;;8.38;3.30;;;;;;;14.09;92.81;100583.81;5054448;28;20055;-79
2022/05/18 07:16:05;;;;;;;10.98;5.22;;;;;;;14.02;93.01;100602.50;5054466;28;20406;-78
2022/05/18 07:18:33;;;;;;;7.70;3.47;;;;;;;13.93;92.84;100599.81;5054423;28;20021;-81
2022/05/18 07:21:02;;;;;;;6.50;2.70;;;;;;;13.76;92.11;100614.91;5054463;28;20057;-81
2022/05/18 07:23:29;;;;;;;12.25;3.50;;;;;;;13.59;91.52;100596.75;5054428;28;20479;-81
2022/05/18 07:25:56;;;;;;;13.82;3.60;;;;;;;13.52;92.99;100607.28;5054347;28;20032;-80
2022/05/18 07:28:22;;;;;;;17.20;5.20;;;;;;;13.34;93.81;100600.91;5054369;28;20085;-79
2022/05/18 07:30:52;;;;;;;10.68;4.18;;;;;;;13.30;94.84;100615.69;5054239;28;20103;-80
2022/05/18 07:33:20;;;;;;;13.30;4.63;;;;;;;13.25;95.77;100625.22;5054456;28;20036;-80
2022/05/18 07:35:47;;;;;;;12.48;3.83;;;;;;;13.21;96.72;100634.63;5054174;28;20526;-81
2022/05/18 07:38:13;;;;;;;18.48;8.63;;;;;;;13.17;96.36;100644.00;5054344;28;20082;-80
2022/05/18 07:40:39;;;;;;;9.55;4.15;;;;;;;13.05;95.22;100657.59;5054327;28;20033;-79
2022/05/18 07:43:04;;;;;;;11.07;3.35;;;;;;;13.08;95.70;100667.28;5054300;28;20508;-81
2022/05/18 07:45:30;;;;;;;12.50;4.28;;;;;;;12.96;95.25;100658.44;5054126;28;20021;-80
2022/05/18 07:47:55;;;;;;;7.53;3.03;;;;;;;12.86;95.93;100654.84;5054166;28;20040;-81
2022/05/18 07:50:23;;;;;;;10.27;6.13;;;;;;;12.79;95.94;100669.88;5054199;28;20035;-81
2022/05/18 07:52:52;;;;;;;8.02;3.30;;;;;;;12.69;96.05;100687.06;5054053;28;20115;-80
2022/05/18 07:55:18;;;;;;;8.43;2.88;;;;;;;12.62;96.17;100675.94;5059672;28;20116;-81
2022/05/18 07:57:44;;;;;;;5.97;2.85;;;;;;;12.56;96.40;100689.97;5064335;28;20395;-80
2022/05/18 08:00:11;;;;;;;15.98;4.90;;;;;;;12.51;96.30;100697.59;5053947;28;20039;-81
2022/05/18 08:02:37;;;;;;;8.20;3.05;;;;;;;12.40;95.85;100695.88;5053704;28;20520;-79
2022/05/18 08:05:04;;;;;;;8.95;3.22;;;;;;;12.46;96.88;100718.75;5053665;28;20125;-79
2022/05/18 08:07:30;;;;;;;7.63;3.88;;;;;;;12.34;95.83;100741.41;5053572;28;20090;-78
2022/05/18 08:15:24;;;;;;;4.68;2.72;;;;;;;12.28;96.54;100726.63;5052996;28;20082;-78
2022/05/18 08:17:50;;;;;;;8.40;3.05;;;;;;;12.23;96.09;100728.84;5053181;28;20029;-78
2022/05/18 08:20:19;;;;;;;6.82;3.03;;;;;;;12.21;95.34;100740.75;5053137;28;20029;-79
2022/05/18 08:22:44;;;;;;;5.70;3.30;;;;;;;12.18;96.06;100743.72;5053275;28;20013;-78
2022/05/18 08:25:11;;;;;;;9.48;3.83;;;;;;;12.16;96.40;100757.34;5051919;28;20029;-80
2022/05/18 08:27:46;;;;;;;13.50;3.78;;;;;;;12.26;97.60;100773.59;5051914;28;20037;-78
2022/05/18 08:30:14;;;;;;;11.93;3.35;;;;;;;12.29;98.04;100797.59;5052956;28;20479;-79
2022/05/18 08:32:40;;;;;;;13.98;5.53;;;;;;;12.34;98.55;100801.59;5052922;28;20028;-81
2022/05/18 08:35:07;;;;;;;10.57;3.90;;;;;;;12.47;99.49;100820.28;5052775;28;20099;-78
2022/05/18 08:37:45;;;;;;;18.83;7.38;;;;;;;12.57;100.00;100823.03;5052959;28;20475;-79
2022/05/18 08:40:38;;;;;;;9.52;3.15;;;;;;;12.64;100.00;100819.66;5053021;28;20025;-79
2022/05/18 08:43:07;;;;;;;8.85;4.30;;;;;;;12.76;100.00;100840.19;5053367;28;20029;-81
2022/05/18 08:45:36;;;;;;;13.77;4.00;;;;;;;12.89;100.00;100835.44;5053424;28;20044;-82
2022/05/18 08:48:11;;;;;;;6.85;3.25;;;;;;;12.84;100.00;100820.63;5051713;28;20029;-80
2022/05/18 08:50:38;;;;;;;5.95;2.90;;;;;;;12.82;96.92;100826.16;5053223;28;20032;-80
2022/05/18 08:53:40;;;;;;;26.48;14.85;;;;;;;12.75;93.83;100853.84;5052743;28;20049;-81
2022/05/18 08:56:19;;;;;;;7.00;2.85;;;;;;;12.62;91.90;100851.34;5056627;28;20566;-80
2022/05/18 08:58:48;;;;;;;6.35;2.67;;;;;;;12.52;92.70;100834.22;5055838;28;20036;-82
2022/05/18 09:01:19;;;;;;;9.23;2.22;;;;;;;12.41;91.92;100855.88;5054343;28;20131;-83
2022/05/18 09:03:49;;;;;;;7.50;2.75;;;;;;;12.25;90.98;100852.75;5053249;28;20052;-82
2022/05/18 09:07:00;;;;;;;6.43;3.03;;;;;;;12.18;91.47;100865.03;5056318;28;20025;-81
2022/05/18 09:12:18;;;;;;;14.60;7.47;;;;;;;12.02;89.33;100848.47;5053293;28;20461;-82
2022/05/18 09:14:45;;;;;;;14.25;3.47;;;;;;;11.89;88.75;100849.50;5052767;28;20029;-82
2022/05/18 09:17:36;;;;;;;8.75;2.97;;;;;;;11.81;89.41;100846.56;5052656;28;20029;-81
2022/05/18 09:20:13;;;;;;;6.78;2.90;;;;;;;11.81;88.52;100833.09;5052627;28;20092;-82
2022/05/18 09:23:00;;;;;;;14.35;5.25;;;;;;;11.83;88.60;100841.88;5052309;28;20459;-83
2022/05/18 09:25:45;;;;;;;14.52;2.90;;;;;;;11.85;88.85;100857.94;5052490;28;20052;-83
2022/05/18 09:28:17;;;;;;;32.78;16.67;;;;;;;11.84;88.25;100865.16;5052279;28;20075;-83
2022/05/18 09:31:01;;;;;;;15.60;5.03;;;;;;;11.86;88.03;100857.81;5052759;28;20495;-83
2022/05/18 09:33:32;;;;;;;10.98;3.20;;;;;;;11.94;89.69;100873.34;5063627;28;20079;-81
2022/05/18 09:36:13;;;;;;;5.90;3.63;;;;;;;11.88;85.01;100863.09;5054239;28;20072;-82
2022/05/18 09:39:10;;;;;;;15.82;6.82;;;;;;;11.92;83.17;100867.25;5052516;28;20402;-83
2022/05/18 09:41:44;;;;;;;7.05;2.83;;;;;;;11.83;83.13;100871.53;5052233;28;20025;-83
2022/05/18 09:44:26;;;;;;;9.70;2.60;;;;;;;11.91;83.57;100871.78;5052639;28;20104;-82
2022/05/18 09:46:52;;;;;;;7.80;2.38;;;;;;;11.83;84.69;100887.69;5050843;28;20464;-83
2022/05/18 09:49:36;;;;;;;10.20;2.55;;;;;;;11.92;86.08;100870.81;5051863;28;20461;-82
2022/05/18 09:52:04;;;;;;;10.90;2.83;;;;;;;11.93;85.17;100879.72;5051963;28;20078;-82
2022/05/18 09:54:31;;;;;;;9.25;2.50;;;;;;;11.92;85.69;100889.66;5051987;28;20547;-82
2022/05/18 09:57:08;;;;;;;9.20;2.90;;;;;;;11.97;85.33;100890.13;5051739;28;20110;-81
2022/05/18 09:59:42;;;;;;;11.43;5.15;;;;;;;12.01;85.54;100896.13;5050495;28;20025;-81
2022/05/18 10:07:50;;;;;;;7.07;2.42;;;;;;;12.19;85.74;100901.81;5052332;28;20036;-82
2022/05/18 10:10:38;;;;;;;6.13;2.80;;;;;;;12.27;86.53;100918.22;5051900;28;20025;-83
2022/05/18 10:13:10;;;;;;;7.43;3.85;;;;;;;12.30;87.94;100936.81;5052214;28;20029;-83
2022/05/18 10:15:43;;;;;;;;;;;;;;;12.36;89.19;100944.41;5052629;28;20025;-83
2022/05/18 10:18:34;;;;;;;14.77;4.18;;;;;;;12.41;89.58;100950.28;5053264;28;19908;-84
2022/05/18 10:21:05;;;;;;;14.02;3.75;;;;;;;12.45;90.00;100951.72;5056149;28;20029;-85
2022/05/18 10:23:40;;;;;;;5.77;3.03;;;;;;;12.63;89.96;100960.97;5053240;28;20032;-86
2022/05/18 10:26:12;;;;;;;10.80;4.03;;;;;;;12.72;89.61;100979.06;5052436;28;20264;-87
2022/05/18 10:28:43;;;;;;;11.52;2.97;;;;;;;12.78;89.67;100970.44;5053690;28;20024;-86
2022/05/18 10:31:24;;;;;;;10.27;3.00;;;;;;;12.88;88.99;100995.69;5055409;28;20518;-86
2022/05/18 10:33:49;;;;;;;12.65;3.38;;;;;;;12.93;88.42;100990.78;5056748;28;20041;-89
2022/05/18 10:36:23;;;;;;;19.23;4.85;;;;;;;13.04;86.50;101006.91;5053751;28;20045;-85
2022/05/18 10:38:52;;;;;;;9.95;5.00;;;;;;;13.11;85.42;101001.88;5057493;28;20024;-85
2022/05/18 10:41:21;;;;;;;7.18;3.35;;;;;;;13.19;83.23;101014.69;5057371;28;20043;-85
2022/05/18 10:44:02;;;;;;;18.55;4.80;;;;;;;13.25;82.70;101024.97;5055553;28;20178;-83
2022/05/18 10:46:32;;;;;;;13.60;3.45;;;;;;;13.26;80.75;101014.03;5056782;28;20387;-83
2022/05/18 10:49:01;;;;;;;5.57;2.80;;;;;;;13.45;80.55;101040.34;5056707;28;20174;-83
2022/05/18 10:51:39;;;;;;;12.07;3.42;;;;;;;13.52;79.37;101039.66;5056651;28;20465;-83
2022/05/18 10:54:25;;;;;;;10.07;2.53;;;;;;;13.53;75.91;101045.91;5057860;28;20036;-82
2022/05/18 10:56:55;;;;;;;10.32;2.95;;;;;;;13.65;76.37;101044.84;5058275;28;20096;-81
2022/05/18 10:59:40;;;;;;;9.98;3.47;;;;;;;13.77;76.61;101043.75;5062205;28;20032;-82
2022/05/18 11:02:09;;;;;;;36.35;19.55;;;;;;;13.75;76.06;101056.56;5055717;28;20130;-83
2022/05/18 11:04:34;;;;;;;15.73;4.75;;;;;;;13.82;74.98;101060.44;5055967;28;20051;-82
2022/05/18 11:07:00;;;;;;;9.70;3.72;;;;;;;13.83;74.56;101059.44;5056637;28;20483;-82
2022/05/18 11:09:31;;;;;;;12.30;3.25;;;;;;;13.81;72.89;101066.84;5065852;28;20019;-82
2022/05/18 11:12:24;;;;;;;21.63;2.60;;;;;;;13.94;73.13;101058.50;5068543;28;20017;-83
2022/05/18 11:15:05;;;;;;;11.93;3.50;;;;;;;14.06;70.83;101070.94;5056122;28;20158;-83
2022/05/18 11:17:36;;;;;;;15.23;3.70;;;;;;;14.18;72.98;101070.72;5055918;28;20025;-83
2022/05/18 11:20:23;;;;;;;23.98;6.72;;;;;;;14.22;71.96;101070.44;5055647;28;20025;-82
2022/05/18 11:23:29;;;;;;;6.45;3.40;;;;;;;14.26;72.80;101064.59;5055429;28;20445;-81
2022/05/18 11:26:09;;;;;;;13.30;5.50;;;;;;;14.32;70.60;101065.88;5013156;28;20036;-81
2022/05/18 11:28:38;;;;;;;8.50;2.70;;;;;;;14.43;70.76;101071.25;5055442;28;20056;-82
2022/05/18 11:31:03;;;;;;;8.30;2.80;;;;;;;14.55;70.80;101070.13;5055364;28;20106;-82
2022/05/18 11:34:01;;;;;;;8.57;2.65;;;;;;;14.63;68.07;101072.97;5055179;28;20570;-81
2022/05/18 11:36:42;;;;;;;22.80;9.05;;;;;;;14.65;67.59;101084.50;5054588;28;20487;-80
2022/05/18 11:39:30;;;;;;;25.60;3.92;;;;;;;14.77;70.48;101079.84;5054878;28;20033;-81
2022/05/18 11:42:10;;;;;;;18.40;3.88;;;;;;;14.89;70.19;101076.84;5059819;28;20035;-80
2022/05/18 11:45:14;;;;;;;13.35;3.95;;;;;;;14.83;68.46;101088.25;5061732;28;20025;-79
2022/05/18 11:47:58;;;;;;;12.27;3.78;;;;;;;14.77;68.31;101086.09;5061303;28;20025;-79